sensor_id;sensor_type;location;lat;lon;timestamp;P1;durP1;ratioP1;P2;durP2;ratioP2
76194;SDS011;64964;48.694;21.206;2023-08-06T00:01:24;5.73;;;4.63;;
76194;SDS011;64964;48.694;21.206;2023-08-06T00:03:50;9.27;;;4.63;;
76194;SDS011;64964;48.694;21.206;2023-08-06T00:06:16;5.68;;;4.30;;
76194;SDS011;64964;48.694;21.206;2023-08-06T00:08:41;4.60;;;4.00;;
76194;SDS011;64964;48.694;21.206;2023-08-06T00:11:07;9.73;;;4.70;;
76194;SDS011;64964;48.694;21.206;2023-08-06T00:13:32;5.83;;;4.00;;
76194;SDS011;64964;48.694;21.206;2023-08-06T00:16:10;8.47;;;4.50;;
76194;SDS011;64964;48.694;21.206;2023-08-06T00:18:37;5.47;;;4.13;;
76194;SDS011;64964;48.694;21.206;2023-08-06T00:21:02;5.35;;;4.07;;
76194;SDS011;64964;48.694;21.206;2023-08-06T00:23:28;4.73;;;4.07;;
76194;SDS011;64964;48.694;21.206;2023-08-06T00:25:53;6.90;;;4.57;;
76194;SDS011;64964;48.694;21.206;2023-08-06T00:28:18;5.53;;;4.50;;
76194;SDS011;64964;48.694;21.206;2023-08-06T00:30:44;5.37;;;4.30;;
76194;SDS011;64964;48.694;21.206;2023-08-06T00:33:09;6.70;;;4.63;;
76194;SDS011;64964;48.694;21.206;2023-08-06T00:35:34;6.40;;;4.40;;
76194;SDS011;64964;48.694;21.206;2023-08-06T00:38:00;7.63;;;4.47;;
76194;SDS011;64964;48.694;21.206;2023-08-06T00:40:25;8.40;;;4.17;;
76194;SDS011;64964;48.694;21.206;2023-08-06T00:42:53;7.40;;;4.88;;
76194;SDS011;64964;48.694;21.206;2023-08-06T00:45:18;7.10;;;4.90;;
76194;SDS011;64964;48.694;21.206;2023-08-06T00:47:44;4.87;;;4.00;;
76194;SDS011;64964;48.694;21.206;2023-08-06T00:50:10;5.65;;;4.50;;
76194;SDS011;64964;48.694;21.206;2023-08-06T00:52:36;5.23;;;4.30;;
76194;SDS011;64964;48.694;21.206;2023-08-06T00:55:02;6.15;;;4.35;;
76194;SDS011;64964;48.694;21.206;2023-08-06T00:57:28;5.43;;;4.40;;
76194;SDS011;64964;48.694;21.206;2023-08-06T00:59:54;6.03;;;4.17;;
76194;SDS011;64964;48.694;21.206;2023-08-06T01:02:19;6.03;;;4.67;;
76194;SDS011;64964;48.694;21.206;2023-08-06T01:04:44;8.43;;;4.33;;
76194;SDS011;64964;48.694;21.206;2023-08-06T01:10:37;6.65;;;4.57;;
76194;SDS011;64964;48.694;21.206;2023-08-06T01:13:11;6.43;;;4.60;;
76194;SDS011;64964;48.694;21.206;2023-08-06T01:15:46;7.47;;;4.53;;
76194;SDS011;64964;48.694;21.206;2023-08-06T01:18:15;5.53;;;4.50;;
76194;SDS011;64964;48.694;21.206;2023-08-06T01:20:40;7.67;;;4.80;;
76194;SDS011;64964;48.694;21.206;2023-08-06T01:23:06;9.52;;;5.00;;
76194;SDS011;64964;48.694;21.206;2023-08-06T01:25:46;6.60;;;4.80;;
76194;SDS011;64964;48.694;21.206;2023-08-06T01:28:24;5.57;;;4.60;;
76194;SDS011;64964;48.694;21.206;2023-08-06T01:30:54;6.10;;;4.60;;
76194;SDS011;64964;48.694;21.206;2023-08-06T01:33:24;6.80;;;5.20;;
76194;SDS011;64964;48.694;21.206;2023-08-06T01:35:54;7.13;;;4.80;;
76194;SDS011;64964;48.694;21.206;2023-08-06T01:38:21;7.33;;;4.90;;
76194;SDS011;64964;48.694;21.206;2023-08-06T01:40:46;7.05;;;4.70;;
76194;SDS011;64964;48.694;21.206;2023-08-06T01:43:12;6.73;;;4.60;;
76194;SDS011;64964;48.694;21.206;2023-08-06T01:45:37;6.43;;;4.90;;
76194;SDS011;64964;48.694;21.206;2023-08-06T01:48:02;5.88;;;4.50;;
76194;SDS011;64964;48.694;21.206;2023-08-06T01:50:28;5.87;;;4.40;;
76194;SDS011;64964;48.694;21.206;2023-08-06T01:52:53;5.50;;;4.60;;
76194;SDS011;64964;48.694;21.206;2023-08-06T01:55:19;7.60;;;4.87;;
76194;SDS011;64964;48.694;21.206;2023-08-06T01:57:44;4.95;;;4.30;;
76194;SDS011;64964;48.694;21.206;2023-08-06T02:00:10;5.97;;;4.57;;
76194;SDS011;64964;48.694;21.206;2023-08-06T02:02:36;6.55;;;4.32;;
76194;SDS011;64964;48.694;21.206;2023-08-06T02:05:01;8.17;;;4.93;;
76194;SDS011;64964;48.694;21.206;2023-08-06T02:07:26;6.67;;;4.80;;
76194;SDS011;64964;48.694;21.206;2023-08-06T02:09:52;6.43;;;4.60;;
76194;SDS011;64964;48.694;21.206;2023-08-06T02:12:17;7.68;;;4.72;;
76194;SDS011;64964;48.694;21.206;2023-08-06T02:14:42;6.63;;;4.37;;
76194;SDS011;64964;48.694;21.206;2023-08-06T02:17:08;6.83;;;5.20;;
76194;SDS011;64964;48.694;21.206;2023-08-06T02:19:33;9.20;;;4.47;;
76194;SDS011;64964;48.694;21.206;2023-08-06T02:21:58;6.33;;;4.90;;
76194;SDS011;64964;48.694;21.206;2023-08-06T02:24:24;6.78;;;4.72;;
76194;SDS011;64964;48.694;21.206;2023-08-06T02:26:49;8.93;;;4.60;;
76194;SDS011;64964;48.694;21.206;2023-08-06T02:29:16;6.90;;;4.55;;
76194;SDS011;64964;48.694;21.206;2023-08-06T02:31:42;6.93;;;4.47;;
76194;SDS011;64964;48.694;21.206;2023-08-06T02:34:07;6.40;;;4.63;;
76194;SDS011;64964;48.694;21.206;2023-08-06T02:36:32;7.07;;;4.80;;
76194;SDS011;64964;48.694;21.206;2023-08-06T02:38:58;5.73;;;4.70;;
76194;SDS011;64964;48.694;21.206;2023-08-06T02:41:23;7.40;;;5.53;;
76194;SDS011;64964;48.694;21.206;2023-08-06T02:43:48;5.63;;;4.73;;
76194;SDS011;64964;48.694;21.206;2023-08-06T02:46:14;7.40;;;5.63;;
76194;SDS011;64964;48.694;21.206;2023-08-06T02:48:39;7.73;;;5.10;;
76194;SDS011;64964;48.694;21.206;2023-08-06T02:51:04;9.13;;;5.60;;
76194;SDS011;64964;48.694;21.206;2023-08-06T02:53:30;9.40;;;5.90;;
76194;SDS011;64964;48.694;21.206;2023-08-06T02:55:56;10.82;;;6.10;;
76194;SDS011;64964;48.694;21.206;2023-08-06T02:58:22;11.45;;;5.82;;
76194;SDS011;64964;48.694;21.206;2023-08-06T03:01:00;11.43;;;6.70;;
76194;SDS011;64964;48.694;21.206;2023-08-06T03:03:30;16.05;;;7.57;;
76194;SDS011;64964;48.694;21.206;2023-08-06T03:05:56;18.47;;;8.60;;
76194;SDS011;64964;48.694;21.206;2023-08-06T03:08:22;15.93;;;8.80;;
76194;SDS011;64964;48.694;21.206;2023-08-06T03:10:50;17.60;;;8.10;;
76194;SDS011;64964;48.694;21.206;2023-08-06T03:13:16;15.35;;;7.90;;
76194;SDS011;64964;48.694;21.206;2023-08-06T03:15:42;17.65;;;8.70;;
76194;SDS011;64964;48.694;21.206;2023-08-06T03:18:07;13.23;;;7.60;;
76194;SDS011;64964;48.694;21.206;2023-08-06T03:20:33;12.97;;;7.90;;
76194;SDS011;64964;48.694;21.206;2023-08-06T03:22:58;12.90;;;7.95;;
76194;SDS011;64964;48.694;21.206;2023-08-06T03:25:23;12.67;;;7.10;;
76194;SDS011;64964;48.694;21.206;2023-08-06T03:27:49;11.43;;;7.10;;
76194;SDS011;64964;48.694;21.206;2023-08-06T03:30:14;8.77;;;6.70;;
76194;SDS011;64964;48.694;21.206;2023-08-06T03:32:40;10.80;;;7.47;;
76194;SDS011;64964;48.694;21.206;2023-08-06T03:35:05;12.03;;;8.10;;
76194;SDS011;64964;48.694;21.206;2023-08-06T03:37:31;15.55;;;9.25;;
76194;SDS011;64964;48.694;21.206;2023-08-06T03:39:56;16.37;;;9.40;;
76194;SDS011;64964;48.694;21.206;2023-08-06T03:42:22;19.93;;;11.97;;
76194;SDS011;64964;48.694;21.206;2023-08-06T03:44:47;22.77;;;14.93;;
76194;SDS011;64964;48.694;21.206;2023-08-06T03:47:13;26.60;;;17.30;;
76194;SDS011;64964;48.694;21.206;2023-08-06T03:49:38;31.00;;;20.40;;
76194;SDS011;64964;48.694;21.206;2023-08-06T03:52:04;29.40;;;19.70;;
76194;SDS011;64964;48.694;21.206;2023-08-06T03:54:30;24.55;;;16.58;;
76194;SDS011;64964;48.694;21.206;2023-08-06T03:56:55;24.23;;;14.83;;
76194;SDS011;64964;48.694;21.206;2023-08-06T03:59:21;20.65;;;14.52;;
76194;SDS011;64964;48.694;21.206;2023-08-06T04:01:46;19.60;;;13.00;;
76194;SDS011;64964;48.694;21.206;2023-08-06T04:04:11;14.57;;;11.17;;
76194;SDS011;64964;48.694;21.206;2023-08-06T04:06:37;15.00;;;11.77;;
76194;SDS011;64964;48.694;21.206;2023-08-06T04:09:02;18.90;;;12.50;;
76194;SDS011;64964;48.694;21.206;2023-08-06T04:11:28;16.05;;;11.88;;
76194;SDS011;64964;48.694;21.206;2023-08-06T04:13:53;13.63;;;10.00;;
76194;SDS011;64964;48.694;21.206;2023-08-06T04:16:20;13.10;;;8.98;;
76194;SDS011;64964;48.694;21.206;2023-08-06T04:18:46;13.63;;;8.80;;
76194;SDS011;64964;48.694;21.206;2023-08-06T04:21:11;14.98;;;9.35;;
76194;SDS011;64964;48.694;21.206;2023-08-06T04:23:37;12.57;;;8.20;;
76194;SDS011;64964;48.694;21.206;2023-08-06T04:26:02;12.93;;;8.30;;
76194;SDS011;64964;48.694;21.206;2023-08-06T04:28:28;8.05;;;5.90;;
76194;SDS011;64964;48.694;21.206;2023-08-06T04:30:53;6.50;;;3.80;;
76194;SDS011;64964;48.694;21.206;2023-08-06T04:33:19;6.55;;;4.60;;
76194;SDS011;64964;48.694;21.206;2023-08-06T04:38:18;4.00;;;3.45;;
76194;SDS011;64964;48.694;21.206;2023-08-06T04:40:44;3.93;;;3.00;;
76194;SDS011;64964;48.694;21.206;2023-08-06T04:43:09;4.60;;;3.35;;
76194;SDS011;64964;48.694;21.206;2023-08-06T04:45:34;3.87;;;2.93;;
76194;SDS011;64964;48.694;21.206;2023-08-06T04:48:00;3.73;;;3.40;;
76194;SDS011;64964;48.694;21.206;2023-08-06T04:50:25;4.00;;;3.30;;
76194;SDS011;64964;48.694;21.206;2023-08-06T04:52:50;5.97;;;3.70;;
76194;SDS011;64964;48.694;21.206;2023-08-06T04:55:16;4.43;;;3.53;;
76194;SDS011;64964;48.694;21.206;2023-08-06T04:57:41;5.17;;;3.60;;
76194;SDS011;64964;48.694;21.206;2023-08-06T05:00:07;4.90;;;3.70;;
76194;SDS011;64964;48.694;21.206;2023-08-06T05:02:32;5.47;;;3.63;;
76194;SDS011;64964;48.694;21.206;2023-08-06T05:04:59;4.30;;;3.25;;
76194;SDS011;64964;48.694;21.206;2023-08-06T05:07:25;6.07;;;3.63;;
76194;SDS011;64964;48.694;21.206;2023-08-06T05:09:50;4.40;;;3.13;;
76194;SDS011;64964;48.694;21.206;2023-08-06T05:12:15;5.10;;;3.10;;
76194;SDS011;64964;48.694;21.206;2023-08-06T05:14:41;3.30;;;2.75;;
76194;SDS011;64964;48.694;21.206;2023-08-06T05:17:06;3.10;;;2.80;;
76194;SDS011;64964;48.694;21.206;2023-08-06T05:19:31;3.07;;;2.77;;
76194;SDS011;64964;48.694;21.206;2023-08-06T05:21:57;4.30;;;2.90;;
76194;SDS011;64964;48.694;21.206;2023-08-06T05:24:22;3.08;;;2.53;;
76194;SDS011;64964;48.694;21.206;2023-08-06T05:26:47;3.13;;;2.60;;
76194;SDS011;64964;48.694;21.206;2023-08-06T05:29:13;3.20;;;2.20;;
76194;SDS011;64964;48.694;21.206;2023-08-06T05:31:39;2.53;;;2.33;;
76194;SDS011;64964;48.694;21.206;2023-08-06T05:34:04;2.40;;;2.20;;
76194;SDS011;64964;48.694;21.206;2023-08-06T05:36:29;3.30;;;2.17;;
76194;SDS011;64964;48.694;21.206;2023-08-06T05:38:55;3.93;;;2.47;;
76194;SDS011;64964;48.694;21.206;2023-08-06T05:41:20;3.28;;;2.13;;
76194;SDS011;64964;48.694;21.206;2023-08-06T05:43:45;4.17;;;2.50;;
76194;SDS011;64964;48.694;21.206;2023-08-06T05:46:11;5.00;;;2.47;;
76194;SDS011;64964;48.694;21.206;2023-08-06T05:48:36;2.50;;;2.30;;
76194;SDS011;64964;48.694;21.206;2023-08-06T05:51:01;2.97;;;2.67;;
76194;SDS011;64964;48.694;21.206;2023-08-06T05:53:27;3.88;;;2.50;;
76194;SDS011;64964;48.694;21.206;2023-08-06T05:55:52;2.43;;;1.67;;
76194;SDS011;64964;48.694;21.206;2023-08-06T05:58:18;2.60;;;2.00;;
76194;SDS011;64964;48.694;21.206;2023-08-06T06:00:45;3.55;;;1.90;;
76194;SDS011;64964;48.694;21.206;2023-08-06T06:03:10;1.87;;;1.67;;
76194;SDS011;64964;48.694;21.206;2023-08-06T06:05:37;3.97;;;1.60;;
76194;SDS011;64964;48.694;21.206;2023-08-06T06:08:04;3.13;;;1.70;;
76194;SDS011;64964;48.694;21.206;2023-08-06T06:10:29;1.95;;;1.58;;
76194;SDS011;64964;48.694;21.206;2023-08-06T06:12:54;1.60;;;1.50;;
76194;SDS011;64964;48.694;21.206;2023-08-06T06:15:20;1.80;;;1.60;;
76194;SDS011;64964;48.694;21.206;2023-08-06T06:17:45;2.47;;;1.70;;
76194;SDS011;64964;48.694;21.206;2023-08-06T06:20:10;2.40;;;1.70;;
76194;SDS011;64964;48.694;21.206;2023-08-06T06:22:36;4.53;;;1.73;;
76194;SDS011;64964;48.694;21.206;2023-08-06T06:25:01;2.00;;;1.80;;
76194;SDS011;64964;48.694;21.206;2023-08-06T06:27:26;2.10;;;1.90;;
76194;SDS011;64964;48.694;21.206;2023-08-06T06:29:52;1.47;;;1.37;;
76194;SDS011;64964;48.694;21.206;2023-08-06T06:32:19;2.05;;;1.40;;
76194;SDS011;64964;48.694;21.206;2023-08-06T06:34:45;2.43;;;1.43;;
76194;SDS011;64964;48.694;21.206;2023-08-06T06:37:10;2.17;;;1.50;;
76194;SDS011;64964;48.694;21.206;2023-08-06T06:39:35;2.40;;;1.30;;
76194;SDS011;64964;48.694;21.206;2023-08-06T06:42:01;2.70;;;1.50;;
76194;SDS011;64964;48.694;21.206;2023-08-06T06:44:26;1.60;;;1.50;;
76194;SDS011;64964;48.694;21.206;2023-08-06T06:46:51;1.40;;;1.17;;
76194;SDS011;64964;48.694;21.206;2023-08-06T06:49:17;2.70;;;1.30;;
76194;SDS011;64964;48.694;21.206;2023-08-06T06:51:42;1.30;;;1.10;;
76194;SDS011;64964;48.694;21.206;2023-08-06T06:54:07;1.20;;;1.10;;
76194;SDS011;64964;48.694;21.206;2023-08-06T06:56:33;1.10;;;1.00;;
76194;SDS011;64964;48.694;21.206;2023-08-06T06:58:58;0.93;;;0.87;;
76194;SDS011;64964;48.694;21.206;2023-08-06T07:01:23;1.02;;;1.02;;
76194;SDS011;64964;48.694;21.206;2023-08-06T07:03:49;1.20;;;1.00;;
76194;SDS011;64964;48.694;21.206;2023-08-06T07:06:14;1.20;;;1.10;;
76194;SDS011;64964;48.694;21.206;2023-08-06T07:08:40;0.90;;;0.90;;
76194;SDS011;64964;48.694;21.206;2023-08-06T07:11:06;1.10;;;1.00;;
76194;SDS011;64964;48.694;21.206;2023-08-06T07:13:32;1.13;;;1.00;;
76194;SDS011;64964;48.694;21.206;2023-08-06T07:15:58;1.23;;;1.00;;
76194;SDS011;64964;48.694;21.206;2023-08-06T07:18:24;1.95;;;1.10;;
76194;SDS011;64964;48.694;21.206;2023-08-06T07:20:50;1.30;;;1.00;;
76194;SDS011;64964;48.694;21.206;2023-08-06T07:23:16;0.90;;;0.90;;
76194;SDS011;64964;48.694;21.206;2023-08-06T07:25:41;0.90;;;0.90;;
76194;SDS011;64964;48.694;21.206;2023-08-06T07:28:07;1.40;;;1.10;;
76194;SDS011;64964;48.694;21.206;2023-08-06T07:30:33;1.30;;;1.20;;
76194;SDS011;64964;48.694;21.206;2023-08-06T07:32:58;1.20;;;0.90;;
76194;SDS011;64964;48.694;21.206;2023-08-06T07:35:23;1.37;;;0.90;;
76194;SDS011;64964;48.694;21.206;2023-08-06T07:37:49;1.20;;;1.00;;
76194;SDS011;64964;48.694;21.206;2023-08-06T07:40:14;1.77;;;1.00;;
76194;SDS011;64964;48.694;21.206;2023-08-06T07:42:40;1.10;;;1.00;;
76194;SDS011;64964;48.694;21.206;2023-08-06T07:45:05;2.50;;;1.30;;
76194;SDS011;64964;48.694;21.206;2023-08-06T07:47:32;1.10;;;1.00;;
76194;SDS011;64964;48.694;21.206;2023-08-06T07:49:57;3.13;;;1.30;;
76194;SDS011;64964;48.694;21.206;2023-08-06T07:52:22;1.20;;;0.97;;
76194;SDS011;64964;48.694;21.206;2023-08-06T07:54:48;1.27;;;1.17;;
76194;SDS011;64964;48.694;21.206;2023-08-06T07:57:13;1.23;;;1.10;;
76194;SDS011;64964;48.694;21.206;2023-08-06T07:59:40;1.02;;;0.95;;
76194;SDS011;64964;48.694;21.206;2023-08-06T08:02:05;0.90;;;0.90;;
76194;SDS011;64964;48.694;21.206;2023-08-06T08:04:30;1.25;;;1.15;;
76194;SDS011;64964;48.694;21.206;2023-08-06T08:06:56;1.27;;;1.10;;
76194;SDS011;64964;48.694;21.206;2023-08-06T08:09:21;2.20;;;1.00;;
76194;SDS011;64964;48.694;21.206;2023-08-06T08:11:47;1.73;;;1.10;;
76194;SDS011;64964;48.694;21.206;2023-08-06T08:14:12;4.80;;;2.90;;
76194;SDS011;64964;48.694;21.206;2023-08-06T08:16:38;6.20;;;2.60;;
76194;SDS011;64964;48.694;21.206;2023-08-06T08:19:03;3.07;;;2.20;;
76194;SDS011;64964;48.694;21.206;2023-08-06T08:21:29;2.25;;;1.73;;
76194;SDS011;64964;48.694;21.206;2023-08-06T08:23:54;2.67;;;2.00;;
76194;SDS011;64964;48.694;21.206;2023-08-06T08:26:20;1.88;;;1.75;;
76194;SDS011;64964;48.694;21.206;2023-08-06T08:28:45;2.70;;;1.67;;
76194;SDS011;64964;48.694;21.206;2023-08-06T08:31:11;1.97;;;1.60;;
76194;SDS011;64964;48.694;21.206;2023-08-06T08:33:37;2.05;;;1.73;;
76194;SDS011;64964;48.694;21.206;2023-08-06T08:36:03;1.88;;;1.77;;
76194;SDS011;64964;48.694;21.206;2023-08-06T08:38:29;1.80;;;1.70;;
76194;SDS011;64964;48.694;21.206;2023-08-06T08:40:54;2.60;;;1.77;;
76194;SDS011;64964;48.694;21.206;2023-08-06T08:43:23;2.63;;;2.00;;
76194;SDS011;64964;48.694;21.206;2023-08-06T08:45:52;2.20;;;2.00;;
76194;SDS011;64964;48.694;21.206;2023-08-06T08:48:24;4.03;;;2.65;;
76194;SDS011;64964;48.694;21.206;2023-08-06T08:50:51;2.90;;;2.60;;
76194;SDS011;64964;48.694;21.206;2023-08-06T08:53:16;5.67;;;3.80;;
76194;SDS011;64964;48.694;21.206;2023-08-06T08:55:43;6.57;;;4.40;;
76194;SDS011;64964;48.694;21.206;2023-08-06T08:58:11;8.20;;;4.82;;
76194;SDS011;64964;48.694;21.206;2023-08-06T09:00:37;10.53;;;5.00;;
76194;SDS011;64964;48.694;21.206;2023-08-06T09:03:04;8.45;;;4.72;;
76194;SDS011;64964;48.694;21.206;2023-08-06T09:05:31;7.60;;;4.63;;
76194;SDS011;64964;48.694;21.206;2023-08-06T09:07:59;8.27;;;4.90;;
76194;SDS011;64964;48.694;21.206;2023-08-06T09:10:27;8.10;;;4.82;;
76194;SDS011;64964;48.694;21.206;2023-08-06T09:12:53;5.50;;;3.30;;
76194;SDS011;64964;48.694;21.206;2023-08-06T09:15:20;5.93;;;3.30;;
76194;SDS011;64964;48.694;21.206;2023-08-06T09:17:49;2.80;;;2.22;;
76194;SDS011;64964;48.694;21.206;2023-08-06T09:20:14;2.13;;;1.93;;
76194;SDS011;64964;48.694;21.206;2023-08-06T09:22:40;1.75;;;1.55;;
76194;SDS011;64964;48.694;21.206;2023-08-06T09:25:07;1.90;;;1.60;;
76194;SDS011;64964;48.694;21.206;2023-08-06T09:27:36;1.80;;;1.67;;
76194;SDS011;64964;48.694;21.206;2023-08-06T09:30:02;2.00;;;1.40;;
76194;SDS011;64964;48.694;21.206;2023-08-06T09:32:39;1.83;;;1.40;;
76194;SDS011;64964;48.694;21.206;2023-08-06T09:35:15;1.80;;;1.70;;
76194;SDS011;64964;48.694;21.206;2023-08-06T09:37:41;1.63;;;1.50;;
76194;SDS011;64964;48.694;21.206;2023-08-06T09:42:51;3.50;;;1.73;;
76194;SDS011;64964;48.694;21.206;2023-08-06T09:45:17;2.92;;;2.03;;
76194;SDS011;64964;48.694;21.206;2023-08-06T09:47:43;2.40;;;1.67;;
76194;SDS011;64964;48.694;21.206;2023-08-06T09:50:18;3.47;;;2.10;;
76194;SDS011;64964;48.694;21.206;2023-08-06T09:52:44;2.15;;;1.83;;
76194;SDS011;64964;48.694;21.206;2023-08-06T09:55:13;2.50;;;1.55;;
76194;SDS011;64964;48.694;21.206;2023-08-06T09:57:40;3.20;;;1.77;;
76194;SDS011;64964;48.694;21.206;2023-08-06T10:00:07;2.10;;;1.60;;
76194;SDS011;64964;48.694;21.206;2023-08-06T10:02:34;3.42;;;1.80;;
76194;SDS011;64964;48.694;21.206;2023-08-06T10:05:02;3.95;;;2.20;;
76194;SDS011;64964;48.694;21.206;2023-08-06T10:07:28;5.77;;;2.10;;
76194;SDS011;64964;48.694;21.206;2023-08-06T10:09:55;3.35;;;2.05;;
76194;SDS011;64964;48.694;21.206;2023-08-06T10:12:21;3.83;;;2.00;;
76194;SDS011;64964;48.694;21.206;2023-08-06T10:14:47;3.80;;;1.80;;
76194;SDS011;64964;48.694;21.206;2023-08-06T10:17:16;2.60;;;1.70;;
76194;SDS011;64964;48.694;21.206;2023-08-06T10:19:42;1.60;;;1.40;;
76194;SDS011;64964;48.694;21.206;2023-08-06T10:22:14;2.30;;;1.40;;
76194;SDS011;64964;48.694;21.206;2023-08-06T10:27:35;2.92;;;1.30;;
76194;SDS011;64964;48.694;21.206;2023-08-06T10:30:28;2.17;;;1.23;;
76194;SDS011;64964;48.694;21.206;2023-08-06T10:33:04;1.25;;;1.15;;
76194;SDS011;64964;48.694;21.206;2023-08-06T10:38:17;1.48;;;1.38;;
76194;SDS011;64964;48.694;21.206;2023-08-06T10:43:35;2.92;;;1.77;;
76194;SDS011;64964;48.694;21.206;2023-08-06T10:46:13;4.80;;;2.47;;
76194;SDS011;64964;48.694;21.206;2023-08-06T10:48:47;8.10;;;3.67;;
76194;SDS011;64964;48.694;21.206;2023-08-06T10:51:13;9.90;;;4.53;;
76194;SDS011;64964;48.694;21.206;2023-08-06T10:53:43;14.43;;;5.30;;
76194;SDS011;64964;48.694;21.206;2023-08-06T10:56:12;14.20;;;5.47;;
76194;SDS011;64964;48.694;21.206;2023-08-06T10:58:39;12.43;;;5.68;;
76194;SDS011;64964;48.694;21.206;2023-08-06T11:01:04;17.33;;;7.37;;
76194;SDS011;64964;48.694;21.206;2023-08-06T11:03:31;15.48;;;8.05;;
76194;SDS011;64964;48.694;21.206;2023-08-06T11:05:58;13.18;;;6.13;;
76194;SDS011;64964;48.694;21.206;2023-08-06T11:08:26;9.30;;;4.27;;
76194;SDS011;64964;48.694;21.206;2023-08-06T11:10:52;6.28;;;2.58;;
76194;SDS011;64964;48.694;21.206;2023-08-06T11:13:18;3.67;;;2.00;;
76194;SDS011;64964;48.694;21.206;2023-08-06T11:15:45;5.00;;;2.47;;
76194;SDS011;64964;48.694;21.206;2023-08-06T11:18:10;6.22;;;3.08;;
76194;SDS011;64964;48.694;21.206;2023-08-06T11:20:36;4.77;;;2.00;;
76194;SDS011;64964;48.694;21.206;2023-08-06T11:23:02;2.90;;;1.80;;
76194;SDS011;64964;48.694;21.206;2023-08-06T11:25:27;5.30;;;2.90;;
76194;SDS011;64964;48.694;21.206;2023-08-06T11:27:54;6.10;;;3.03;;
76194;SDS011;64964;48.694;21.206;2023-08-06T11:30:19;7.10;;;3.30;;
76194;SDS011;64964;48.694;21.206;2023-08-06T11:32:45;3.43;;;1.90;;
76194;SDS011;64964;48.694;21.206;2023-08-06T11:35:15;1.52;;;1.20;;
76194;SDS011;64964;48.694;21.206;2023-08-06T11:37:44;0.80;;;0.80;;
76194;SDS011;64964;48.694;21.206;2023-08-06T11:40:11;1.85;;;1.13;;
76194;SDS011;64964;48.694;21.206;2023-08-06T11:42:39;3.20;;;2.00;;
76194;SDS011;64964;48.694;21.206;2023-08-06T11:45:05;3.75;;;1.70;;
76194;SDS011;64964;48.694;21.206;2023-08-06T11:47:30;3.27;;;2.07;;
76194;SDS011;64964;48.694;21.206;2023-08-06T11:49:56;5.80;;;2.30;;
76194;SDS011;64964;48.694;21.206;2023-08-06T11:52:22;5.03;;;2.30;;
76194;SDS011;64964;48.694;21.206;2023-08-06T11:55:01;3.10;;;1.90;;
76194;SDS011;64964;48.694;21.206;2023-08-06T11:57:29;2.40;;;1.60;;
76194;SDS011;64964;48.694;21.206;2023-08-06T11:59:58;1.63;;;1.40;;
76194;SDS011;64964;48.694;21.206;2023-08-06T12:02:28;1.98;;;1.70;;
76194;SDS011;64964;48.694;21.206;2023-08-06T12:05:10;2.28;;;1.48;;
76194;SDS011;64964;48.694;21.206;2023-08-06T12:07:38;1.90;;;1.70;;
76194;SDS011;64964;48.694;21.206;2023-08-06T12:10:05;2.77;;;1.83;;
76194;SDS011;64964;48.694;21.206;2023-08-06T12:12:31;3.80;;;1.73;;
76194;SDS011;64964;48.694;21.206;2023-08-06T12:14:56;3.13;;;1.80;;
76194;SDS011;64964;48.694;21.206;2023-08-06T12:17:24;5.20;;;2.17;;
76194;SDS011;64964;48.694;21.206;2023-08-06T12:19:50;4.57;;;2.70;;
76194;SDS011;64964;48.694;21.206;2023-08-06T12:22:16;7.47;;;3.10;;
76194;SDS011;64964;48.694;21.206;2023-08-06T12:24:45;5.25;;;2.85;;
76194;SDS011;64964;48.694;21.206;2023-08-06T12:27:12;4.57;;;3.00;;
76194;SDS011;64964;48.694;21.206;2023-08-06T12:29:41;3.35;;;2.53;;
76194;SDS011;64964;48.694;21.206;2023-08-06T12:32:10;5.68;;;2.95;;
76194;SDS011;64964;48.694;21.206;2023-08-06T12:34:43;6.30;;;3.08;;
76194;SDS011;64964;48.694;21.206;2023-08-06T12:37:08;4.20;;;2.50;;
76194;SDS011;64964;48.694;21.206;2023-08-06T12:39:34;3.93;;;2.73;;
76194;SDS011;64964;48.694;21.206;2023-08-06T12:42:01;3.25;;;2.25;;
76194;SDS011;64964;48.694;21.206;2023-08-06T12:44:28;2.83;;;1.90;;
76194;SDS011;64964;48.694;21.206;2023-08-06T12:46:53;3.67;;;1.80;;
76194;SDS011;64964;48.694;21.206;2023-08-06T12:49:19;2.33;;;1.73;;
76194;SDS011;64964;48.694;21.206;2023-08-06T12:51:51;5.80;;;2.88;;
76194;SDS011;64964;48.694;21.206;2023-08-06T12:54:17;5.80;;;3.00;;
76194;SDS011;64964;48.694;21.206;2023-08-06T12:56:44;4.75;;;3.00;;
76194;SDS011;64964;48.694;21.206;2023-08-06T12:59:10;7.20;;;3.23;;
76194;SDS011;64964;48.694;21.206;2023-08-06T13:01:37;6.60;;;3.60;;
76194;SDS011;64964;48.694;21.206;2023-08-06T13:04:03;3.83;;;3.42;;
76194;SDS011;64964;48.694;21.206;2023-08-06T13:06:28;5.27;;;3.50;;
76194;SDS011;64964;48.694;21.206;2023-08-06T13:08:53;4.10;;;3.60;;
76194;SDS011;64964;48.694;21.206;2023-08-06T13:11:19;3.47;;;2.87;;
76194;SDS011;64964;48.694;21.206;2023-08-06T13:13:44;4.53;;;3.45;;
76194;SDS011;64964;48.694;21.206;2023-08-06T13:16:10;4.03;;;3.20;;
76194;SDS011;64964;48.694;21.206;2023-08-06T13:18:35;3.67;;;3.10;;
76194;SDS011;64964;48.694;21.206;2023-08-06T13:21:00;5.33;;;3.67;;
76194;SDS011;64964;48.694;21.206;2023-08-06T13:23:26;5.10;;;3.53;;
76194;SDS011;64964;48.694;21.206;2023-08-06T13:25:51;5.57;;;3.47;;
76194;SDS011;64964;48.694;21.206;2023-08-06T13:28:16;3.87;;;3.47;;
76194;SDS011;64964;48.694;21.206;2023-08-06T13:30:42;3.60;;;3.30;;
76194;SDS011;64964;48.694;21.206;2023-08-06T13:33:08;3.40;;;3.10;;
76194;SDS011;64964;48.694;21.206;2023-08-06T13:35:34;5.13;;;3.88;;
76194;SDS011;64964;48.694;21.206;2023-08-06T13:37:59;3.97;;;3.30;;
76194;SDS011;64964;48.694;21.206;2023-08-06T13:40:24;5.50;;;3.60;;
76194;SDS011;64964;48.694;21.206;2023-08-06T13:42:50;5.17;;;4.20;;
76194;SDS011;64964;48.694;21.206;2023-08-06T13:45:15;5.40;;;4.00;;
76194;SDS011;64964;48.694;21.206;2023-08-06T13:47:41;4.80;;;4.07;;
76194;SDS011;64964;48.694;21.206;2023-08-06T13:50:06;3.50;;;3.20;;
76194;SDS011;64964;48.694;21.206;2023-08-06T13:52:32;5.13;;;3.83;;
76194;SDS011;64964;48.694;21.206;2023-08-06T13:54:57;3.75;;;3.05;;
76194;SDS011;64964;48.694;21.206;2023-08-06T13:57:22;4.50;;;3.20;;
76194;SDS011;64964;48.694;21.206;2023-08-06T13:59:48;4.30;;;3.73;;
76194;SDS011;64964;48.694;21.206;2023-08-06T14:02:13;3.90;;;3.50;;
76194;SDS011;64964;48.694;21.206;2023-08-06T14:04:39;3.87;;;3.20;;
76194;SDS011;64964;48.694;21.206;2023-08-06T14:07:05;4.13;;;3.70;;
76194;SDS011;64964;48.694;21.206;2023-08-06T14:09:30;4.20;;;3.80;;
76194;SDS011;64964;48.694;21.206;2023-08-06T14:11:56;3.60;;;3.03;;
76194;SDS011;64964;48.694;21.206;2023-08-06T14:14:21;4.37;;;3.43;;
76194;SDS011;64964;48.694;21.206;2023-08-06T14:16:51;5.15;;;4.18;;
76194;SDS011;64964;48.694;21.206;2023-08-06T14:19:17;5.32;;;4.25;;
76194;SDS011;64964;48.694;21.206;2023-08-06T14:21:42;3.93;;;3.53;;
76194;SDS011;64964;48.694;21.206;2023-08-06T14:24:07;5.63;;;3.97;;
76194;SDS011;64964;48.694;21.206;2023-08-06T14:26:33;4.03;;;2.70;;
76194;SDS011;64964;48.694;21.206;2023-08-06T14:28:58;4.60;;;2.40;;
76194;SDS011;64964;48.694;21.206;2023-08-06T14:31:23;2.47;;;2.13;;
76194;SDS011;64964;48.694;21.206;2023-08-06T14:33:49;4.13;;;2.90;;
76194;SDS011;64964;48.694;21.206;2023-08-06T14:36:14;7.33;;;2.70;;
76194;SDS011;64964;48.694;21.206;2023-08-06T14:38:40;5.05;;;2.92;;
76194;SDS011;64964;48.694;21.206;2023-08-06T14:41:05;2.23;;;2.03;;
76194;SDS011;64964;48.694;21.206;2023-08-06T14:43:31;2.10;;;1.90;;
76194;SDS011;64964;48.694;21.206;2023-08-06T14:45:56;1.73;;;1.63;;